createdAt,value
2018-06-16T00:00:20.881Z,21.52
2018-06-16T00:05:13.789Z,21.51
2018-06-16T00:10:06.739Z,21.44
2018-06-16T00:14:59.661Z,21.41
2018-06-16T00:19:52.502Z,21.38
2018-06-16T00:24:45.416Z,21.36
2018-06-16T00:29:38.311Z,21.33
2018-06-16T00:34:31.287Z,21.26
2018-06-16T00:39:24.133Z,21.23
2018-06-16T00:44:17.069Z,21.19
2018-06-16T00:49:10.257Z,21.17
2018-06-16T00:54:03.146Z,21.15
2018-06-16T00:58:56.035Z,21.11
2018-06-16T01:03:48.957Z,21.07
2018-06-16T01:08:41.787Z,21.03
2018-06-16T01:13:34.665Z,21.01
2018-06-16T01:18:27.628Z,20.97
2018-06-16T01:23:20.566Z,20.92
2018-06-16T01:28:13.443Z,20.88
2018-06-16T01:33:06.274Z,20.83
2018-06-16T01:37:59.141Z,20.83
2018-06-16T01:42:52.005Z,20.81
2018-06-16T01:47:44.872Z,20.76
2018-06-16T01:52:37.741Z,20.74
2018-06-16T01:57:30.563Z,20.69
2018-06-16T02:02:23.438Z,20.64
2018-06-16T02:07:16.341Z,20.59
2018-06-16T02:12:09.202Z,20.54
2018-06-16T02:17:02.080Z,20.49
2018-06-16T02:21:54.930Z,20.46
2018-06-16T02:26:47.731Z,20.44
2018-06-16T02:31:40.646Z,20.42
2018-06-16T02:36:33.431Z,20.41
2018-06-16T02:41:26.312Z,20.38
2018-06-16T02:46:19.220Z,20.36
2018-06-16T02:51:12.087Z,20.34
2018-06-16T02:56:05.026Z,20.33
2018-06-16T03:00:57.914Z,20.34
2018-06-16T03:05:50.725Z,20.34
2018-06-16T03:10:43.587Z,20.32
2018-06-16T03:15:36.641Z,20.28
2018-06-16T03:20:29.641Z,20.24
2018-06-16T03:25:22.486Z,20.25
2018-06-16T03:30:15.372Z,20.25
2018-06-16T03:35:08.243Z,20.25
2018-06-16T03:40:01.079Z,20.26
2018-06-16T03:44:53.956Z,20.23
2018-06-16T03:49:46.801Z,20.24
2018-06-16T03:54:39.637Z,20.27
2018-06-16T03:59:32.502Z,20.31
2018-06-16T04:04:25.327Z,20.32
2018-06-16T04:09:18.198Z,20.33
2018-06-16T04:14:11.085Z,20.33
2018-06-16T04:19:04.011Z,20.34
2018-06-16T04:23:56.855Z,20.33
2018-06-16T04:28:49.713Z,20.29
2018-06-16T04:33:42.600Z,20.28
2018-06-16T04:38:35.504Z,20.27
2018-06-16T04:43:28.303Z,20.25
2018-06-16T04:48:21.111Z,20.25
2018-06-16T04:53:14.042Z,20.25
2018-06-16T04:58:06.946Z,20.27
2018-06-16T05:02:59.906Z,20.32
2018-06-16T05:07:52.734Z,20.33
2018-06-16T05:12:45.629Z,20.34
2018-06-16T05:17:38.517Z,20.35
2018-06-16T05:22:31.371Z,20.38
2018-06-16T05:27:24.289Z,20.44
2018-06-16T05:32:17.194Z,20.48
2018-06-16T05:37:10.003Z,20.51
2018-06-16T05:42:02.947Z,20.54
2018-06-16T05:46:55.842Z,20.59
2018-06-16T05:51:48.663Z,20.64
2018-06-16T05:56:41.594Z,20.70
2018-06-16T06:01:34.472Z,20.75
2018-06-16T06:06:27.441Z,20.81
2018-06-16T06:11:20.281Z,20.84
2018-06-16T06:16:13.221Z,20.87
2018-06-16T06:21:06.198Z,20.88
2018-06-16T06:25:59.101Z,20.90
2018-06-16T06:30:52.001Z,20.91
2018-06-16T06:35:44.909Z,20.93
2018-06-16T06:40:37.834Z,21.00
2018-06-16T06:45:30.808Z,21.06
2018-06-16T06:50:23.707Z,21.14
2018-06-16T06:55:16.574Z,21.17
2018-06-16T07:00:09.451Z,21.20
2018-06-16T07:05:02.337Z,21.31
2018-06-16T07:09:55.309Z,21.43
2018-06-16T07:14:48.209Z,21.57
2018-06-16T07:19:41.123Z,21.72
2018-06-16T07:24:34.052Z,21.92
2018-06-16T07:29:26.951Z,22.35
2018-06-16T07:34:19.819Z,23.46
2018-06-16T07:39:12.695Z,23.73
2018-06-16T07:44:05.717Z,23.50
2018-06-16T07:48:58.637Z,23.33
2018-06-16T07:53:51.521Z,23.26
2018-06-16T07:58:44.380Z,23.33
2018-06-16T08:03:37.297Z,23.33
2018-06-16T08:08:30.116Z,23.34
2018-06-16T08:13:22.945Z,23.41
2018-06-16T08:18:15.774Z,23.77
2018-06-16T08:23:08.584Z,24.06
2018-06-16T08:28:01.482Z,24.28
2018-06-16T08:32:54.294Z,24.58
2018-06-16T08:37:47.169Z,24.88
2018-06-16T08:42:40.279Z,24.85
2018-06-16T08:47:33.089Z,24.78
2018-06-16T08:52:25.939Z,24.75
2018-06-16T08:57:18.874Z,24.82
2018-06-16T09:02:11.797Z,25.06
2018-06-16T09:07:04.728Z,25.21
2018-06-16T09:11:57.663Z,25.32
2018-06-16T09:16:50.489Z,25.20
2018-06-16T09:21:43.473Z,25.16
2018-06-16T09:26:36.420Z,25.16
2018-06-16T09:31:29.268Z,25.08
2018-06-16T09:36:22.133Z,25.04
2018-06-16T09:41:15.066Z,24.93
2018-06-16T09:46:08.031Z,24.83
2018-06-16T09:51:01.022Z,24.92
2018-06-16T09:55:54.098Z,25.10
2018-06-16T10:00:47.261Z,25.28
2018-06-16T10:05:40.250Z,25.66
2018-06-16T10:10:33.156Z,26.10
2018-06-16T10:15:26.118Z,26.19
2018-06-16T10:20:19.271Z,26.32
2018-06-16T10:25:12.183Z,26.54
2018-06-16T10:30:05.159Z,26.45
2018-06-16T10:34:58.018Z,26.31
2018-06-16T10:39:50.959Z,26.17
2018-06-16T10:44:43.769Z,26.16
2018-06-16T10:49:36.652Z,26.19
2018-06-16T10:54:29.547Z,26.24
2018-06-16T10:59:22.414Z,26.23
2018-06-16T11:04:15.330Z,26.19
2018-06-16T11:09:09.317Z,26.40
2018-06-16T11:14:02.171Z,26.82
2018-06-16T11:18:55.000Z,26.96
2018-06-16T11:23:47.889Z,27.24
2018-06-16T11:28:40.768Z,27.54
2018-06-16T11:33:33.618Z,27.67
2018-06-16T11:38:26.438Z,27.47
2018-06-16T11:43:19.265Z,27.29
2018-06-16T11:48:12.117Z,27.09
2018-06-16T11:53:05.026Z,26.97
2018-06-16T11:57:57.888Z,27.15
2018-06-16T12:02:50.820Z,27.50
2018-06-16T12:07:43.833Z,27.60
2018-06-16T12:12:36.747Z,27.74
2018-06-16T12:17:29.566Z,27.77
2018-06-16T12:22:22.445Z,27.61
2018-06-16T12:27:15.293Z,27.52
2018-06-16T12:32:08.238Z,27.50
2018-06-16T12:37:01.167Z,27.39
2018-06-16T12:41:53.994Z,27.35
2018-06-16T12:46:46.891Z,27.39
2018-06-16T12:51:39.681Z,27.48
2018-06-16T12:56:32.571Z,27.49
2018-06-16T13:01:25.459Z,27.45
2018-06-16T13:06:18.356Z,27.44
2018-06-16T13:11:11.766Z,27.37
2018-06-16T13:16:04.961Z,27.46
2018-06-16T13:20:57.801Z,27.57
2018-06-16T13:25:50.615Z,27.63
2018-06-16T13:30:43.561Z,27.79
2018-06-16T13:35:36.432Z,27.80
2018-06-16T13:40:29.329Z,27.85
2018-06-16T13:45:22.152Z,27.85
2018-06-16T13:50:14.980Z,27.89
2018-06-16T13:55:07.809Z,27.82
2018-06-16T14:00:00.672Z,27.68
2018-06-16T14:04:53.660Z,27.69
2018-06-16T14:09:46.589Z,27.84
2018-06-16T14:14:39.512Z,27.92
2018-06-16T14:19:32.378Z,27.76
2018-06-16T14:24:25.217Z,27.71
2018-06-16T14:29:18.108Z,27.72
2018-06-16T14:34:10.935Z,27.80
2018-06-16T14:39:05.682Z,28.00
2018-06-16T14:43:58.559Z,28.01
2018-06-16T14:48:51.444Z,28.01
2018-06-16T14:53:44.345Z,28.05
2018-06-16T14:58:37.358Z,27.97
2018-06-16T15:03:30.320Z,27.94
2018-06-16T15:08:23.221Z,27.91
2018-06-16T15:13:16.138Z,27.88
2018-06-16T15:18:09.555Z,27.77
2018-06-16T15:23:02.495Z,27.81
2018-06-16T15:27:55.385Z,27.80
2018-06-16T15:32:48.313Z,27.83
2018-06-16T15:37:41.238Z,27.85
2018-06-16T15:42:34.248Z,27.86
2018-06-16T15:47:27.027Z,27.81
2018-06-16T15:52:19.848Z,27.77
2018-06-16T15:57:12.796Z,27.76
2018-06-16T16:02:05.720Z,27.75
2018-06-16T16:06:58.553Z,27.73
2018-06-16T16:11:51.309Z,27.71
2018-06-16T16:16:44.146Z,27.69
2018-06-16T16:21:37.050Z,27.74
2018-06-16T16:26:29.909Z,27.79
2018-06-16T16:31:22.881Z,27.83
2018-06-16T16:36:15.733Z,27.80
2018-06-16T16:41:08.696Z,27.78
2018-06-16T16:46:01.564Z,27.82
2018-06-16T16:50:54.474Z,27.75
2018-06-16T16:55:47.333Z,27.69
2018-06-16T17:00:40.248Z,27.65
2018-06-16T17:05:33.105Z,27.61
2018-06-16T17:10:25.950Z,27.58
2018-06-16T17:15:18.868Z,27.54
2018-06-16T17:20:11.856Z,27.48
2018-06-16T17:25:04.881Z,27.42
2018-06-16T17:29:57.819Z,27.43
2018-06-16T17:34:50.749Z,27.39
2018-06-16T17:39:43.682Z,27.40
2018-06-16T17:44:36.748Z,27.36
2018-06-16T17:49:29.682Z,27.31
2018-06-16T17:54:22.617Z,27.26
2018-06-16T17:59:15.561Z,27.23
2018-06-16T18:04:08.450Z,27.17
2018-06-16T18:09:01.311Z,27.14
2018-06-16T18:13:54.298Z,27.11
2018-06-16T18:18:47.184Z,27.05
2018-06-16T18:23:40.113Z,26.98
2018-06-16T18:28:33.449Z,26.95
2018-06-16T18:33:26.336Z,26.93
2018-06-16T18:38:19.937Z,26.88
2018-06-16T18:43:12.852Z,26.87
2018-06-16T18:48:05.797Z,26.83
2018-06-16T18:52:58.692Z,26.78
2018-06-16T18:57:51.601Z,26.77
2018-06-16T19:02:44.453Z,26.70
2018-06-16T19:07:37.497Z,26.68
2018-06-16T19:12:30.444Z,26.63
2018-06-16T19:17:23.429Z,26.57
2018-06-16T19:22:16.302Z,26.54
2018-06-16T19:27:09.147Z,26.50
2018-06-16T19:32:02.078Z,26.44
2018-06-16T19:36:54.989Z,26.41
2018-06-16T19:41:47.888Z,26.39
2018-06-16T19:46:40.829Z,26.39
2018-06-16T19:51:33.832Z,26.35
2018-06-16T19:56:26.737Z,26.30
2018-06-16T20:01:19.724Z,26.26
2018-06-16T20:06:12.591Z,26.24
2018-06-16T20:11:05.436Z,26.21
2018-06-16T20:15:58.212Z,26.14
2018-06-16T20:20:51.081Z,26.08
2018-06-16T20:25:43.992Z,26.03
2018-06-16T20:30:36.885Z,26.00
2018-06-16T20:35:29.854Z,25.95
2018-06-16T20:40:22.730Z,25.93
2018-06-16T20:45:15.638Z,25.90
2018-06-16T20:50:08.487Z,25.82
2018-06-16T20:55:01.462Z,25.80
2018-06-16T20:59:54.388Z,25.74
2018-06-16T21:04:47.258Z,25.67
2018-06-16T21:09:40.186Z,25.57
2018-06-16T21:14:33.088Z,25.52
2018-06-16T21:19:25.961Z,25.44
2018-06-16T21:24:18.840Z,25.36
2018-06-16T21:29:11.827Z,25.30
2018-06-16T21:34:04.782Z,25.26
2018-06-16T21:38:57.860Z,25.20
2018-06-16T21:43:50.707Z,25.14
2018-06-16T21:48:43.629Z,25.06
2018-06-16T21:53:36.584Z,24.98
2018-06-16T21:58:30.382Z,24.89
2018-06-16T22:03:23.265Z,24.78
2018-06-16T22:08:24.632Z,24.71
2018-06-16T22:13:17.550Z,24.65
2018-06-16T22:18:10.617Z,24.57
2018-06-16T22:23:03.554Z,24.53
2018-06-16T22:27:56.497Z,24.48
2018-06-16T22:32:49.383Z,24.45
2018-06-16T22:37:42.618Z,24.41
2018-06-16T22:42:35.480Z,24.37
2018-06-16T22:47:28.356Z,24.36
2018-06-16T22:57:20.908Z,24.29
2018-06-16T23:02:13.847Z,24.26
2018-06-16T23:07:06.989Z,24.24
2018-06-16T23:11:59.902Z,24.25
2018-06-16T23:16:52.723Z,24.23
2018-06-16T23:21:45.609Z,24.20
2018-06-16T23:26:38.535Z,24.13
2018-06-16T23:31:31.475Z,24.07
2018-06-16T23:36:24.377Z,24.07
2018-06-16T23:41:17.248Z,24.06
2018-06-16T23:46:10.209Z,24.03
2018-06-16T23:51:03.084Z,23.97
2018-06-16T23:55:55.969Z,23.93
